createdAt,value
2023-02-18T00:00:41.484Z,0.00
2023-02-18T00:01:41.515Z,0.00
2023-02-18T00:02:41.576Z,0.00
2023-02-18T00:03:41.650Z,0.00
2023-02-18T00:04:41.590Z,0.00
2023-02-18T00:05:41.616Z,0.00
2023-02-18T00:06:41.646Z,0.00
2023-02-18T00:07:41.686Z,0.00
2023-02-18T00:08:41.699Z,0.00
2023-02-18T00:09:41.726Z,0.00
2023-02-18T00:10:41.748Z,0.00
2023-02-18T00:11:41.777Z,0.00
2023-02-18T00:12:41.799Z,0.00
2023-02-18T00:13:41.827Z,0.00
2023-02-18T00:14:41.854Z,0.00
2023-02-18T00:15:41.896Z,0.00
2023-02-18T00:16:41.913Z,0.00
2023-02-18T00:17:41.934Z,0.00
2023-02-18T00:18:41.981Z,0.00
2023-02-18T00:19:41.989Z,0.00
2023-02-18T00:20:42.025Z,0.00
2023-02-18T00:21:42.056Z,0.00
2023-02-18T00:22:42.066Z,0.00
2023-02-18T00:23:43.897Z,0.00
2023-02-18T00:24:42.118Z,0.00
2023-02-18T00:25:42.149Z,0.00
2023-02-18T00:26:42.172Z,0.00
2023-02-18T00:27:42.200Z,0.00
2023-02-18T00:28:42.232Z,0.00
2023-02-18T00:29:42.251Z,0.00
2023-02-18T00:30:42.283Z,0.00
2023-02-18T00:31:42.509Z,0.00
2023-02-18T00:32:42.330Z,0.00
2023-02-18T00:33:42.357Z,0.00
2023-02-18T00:34:42.404Z,0.00
2023-02-18T00:35:42.414Z,0.00
2023-02-18T00:36:42.436Z,0.00
2023-02-18T00:37:42.461Z,0.00
2023-02-18T00:38:42.503Z,0.00
2023-02-18T00:39:42.540Z,0.00
2023-02-18T00:40:42.541Z,0.00
2023-02-18T00:41:42.578Z,0.00
2023-02-18T00:42:42.596Z,0.00
2023-02-18T00:43:42.631Z,0.00
2023-02-18T00:44:42.649Z,0.00
2023-02-18T00:45:42.674Z,0.00
2023-02-18T00:46:42.747Z,0.00
2023-02-18T00:47:42.726Z,0.00
2023-02-18T00:48:42.755Z,0.00
2023-02-18T00:49:42.779Z,0.00
2023-02-18T00:50:42.831Z,0.00
2023-02-18T00:51:42.836Z,0.00
2023-02-18T00:52:42.862Z,0.00
2023-02-18T00:53:42.885Z,0.00
2023-02-18T00:54:42.925Z,0.00
2023-02-18T00:55:42.935Z,0.00
2023-02-18T00:56:42.971Z,0.00
2023-02-18T00:57:42.991Z,0.00
2023-02-18T00:58:43.021Z,0.00
2023-02-18T00:59:43.041Z,0.00
2023-02-18T01:00:43.088Z,0.00
2023-02-18T01:01:43.147Z,0.00
2023-02-18T01:02:43.128Z,0.00
2023-02-18T01:03:43.154Z,0.00
2023-02-18T01:04:43.225Z,0.00
2023-02-18T01:05:43.202Z,0.00
2023-02-18T01:06:43.252Z,0.00
2023-02-18T01:07:43.256Z,0.00
2023-02-18T01:08:43.291Z,0.00
2023-02-18T01:09:43.309Z,0.00
2023-02-18T01:10:43.338Z,0.00
2023-02-18T01:11:43.364Z,0.00
2023-02-18T01:12:43.391Z,0.00
2023-02-18T01:13:43.417Z,0.00
2023-02-18T01:14:43.445Z,0.00
2023-02-18T01:15:43.491Z,0.00
2023-02-18T01:16:43.499Z,0.00
2023-02-18T01:17:43.522Z,0.00
2023-02-18T01:18:43.551Z,0.00
2023-02-18T01:19:43.578Z,0.00
2023-02-18T01:20:43.606Z,0.00
2023-02-18T01:21:43.630Z,0.00
2023-02-18T01:22:43.676Z,0.00
2023-02-18T01:23:43.688Z,0.00
2023-02-18T01:24:46.201Z,0.00
2023-02-18T01:25:43.737Z,0.00
2023-02-18T01:26:43.762Z,0.00
2023-02-18T01:27:43.785Z,0.00
2023-02-18T01:28:43.815Z,0.00
2023-02-18T01:29:43.840Z,0.00
2023-02-18T01:30:43.874Z,0.00
2023-02-18T01:31:44.002Z,0.00
2023-02-18T01:32:43.922Z,0.00
2023-02-18T01:33:43.960Z,0.00
2023-02-18T01:34:43.974Z,0.00
2023-02-18T01:35:44.003Z,0.00
2023-02-18T01:36:44.029Z,0.00
2023-02-18T01:37:44.054Z,0.00
2023-02-18T01:38:44.099Z,0.00
2023-02-18T01:39:44.103Z,0.00
2023-02-18T01:40:44.128Z,0.00
2023-02-18T01:41:44.154Z,0.00
2023-02-18T01:42:44.181Z,0.00
2023-02-18T01:43:44.204Z,0.00
2023-02-18T01:44:44.232Z,0.00
2023-02-18T01:45:44.259Z,0.00
2023-02-18T01:46:44.332Z,0.00
2023-02-18T01:47:44.308Z,0.00
2023-02-18T01:48:44.344Z,0.00
2023-02-18T01:49:44.368Z,0.00
2023-02-18T01:50:44.392Z,0.00
2023-02-18T01:51:44.413Z,0.00
2023-02-18T01:52:44.440Z,0.00
2023-02-18T01:53:44.477Z,0.00
2023-02-18T01:54:44.513Z,0.00
2023-02-18T01:55:44.521Z,0.00
2023-02-18T01:56:44.549Z,0.00
2023-02-18T01:57:44.573Z,0.00
2023-02-18T01:58:44.598Z,0.00
2023-02-18T01:59:44.622Z,0.00
2023-02-18T02:00:44.689Z,0.00
2023-02-18T02:01:44.756Z,0.00
2023-02-18T02:02:44.703Z,0.00
2023-02-18T02:03:44.725Z,0.00
2023-02-18T02:04:44.755Z,0.00
2023-02-18T02:05:44.781Z,0.00
2023-02-18T02:06:44.810Z,0.00
2023-02-18T02:07:44.832Z,0.00
2023-02-18T02:08:44.860Z,0.00
2023-02-18T02:09:44.886Z,0.00
2023-02-18T02:10:44.985Z,0.00
2023-02-18T02:11:44.940Z,0.00
2023-02-18T02:12:44.967Z,0.00
2023-02-18T02:13:44.992Z,0.00
2023-02-18T02:14:45.027Z,0.00
2023-02-18T02:15:45.042Z,0.00
2023-02-18T02:16:45.091Z,0.00
2023-02-18T02:17:45.106Z,0.00
2023-02-18T02:18:45.127Z,0.00
2023-02-18T02:19:45.150Z,0.00
2023-02-18T02:20:45.178Z,0.00
2023-02-18T02:21:45.208Z,0.00
2023-02-18T02:22:45.231Z,0.00
2023-02-18T02:23:45.262Z,0.00
2023-02-18T02:24:45.285Z,0.00
2023-02-18T02:25:45.310Z,0.00
2023-02-18T02:26:45.355Z,0.00
2023-02-18T02:27:45.366Z,0.00
2023-02-18T02:28:45.392Z,0.00
2023-02-18T02:29:45.441Z,0.00
2023-02-18T02:30:45.450Z,0.00
2023-02-18T02:31:45.559Z,0.00
2023-02-18T02:32:45.498Z,0.00
2023-02-18T02:33:45.520Z,0.00
2023-02-18T02:34:45.553Z,0.00
2023-02-18T02:35:45.573Z,0.00
2023-02-18T02:36:45.612Z,0.00
2023-02-18T02:37:45.626Z,0.00
2023-02-18T02:38:45.655Z,0.00
2023-02-18T02:39:45.676Z,0.00
2023-02-18T02:40:45.706Z,0.00
2023-02-18T02:41:45.730Z,0.00
2023-02-18T02:42:45.788Z,0.00
2023-02-18T02:43:45.783Z,0.00
2023-02-18T02:44:45.812Z,0.00
2023-02-18T02:45:45.843Z,0.00
2023-02-18T02:46:45.870Z,0.00
2023-02-18T02:47:45.892Z,0.00
2023-02-18T02:48:45.928Z,0.00
2023-02-18T02:49:45.945Z,0.00
2023-02-18T02:50:45.974Z,0.00
2023-02-18T02:51:45.998Z,0.00
2023-02-18T02:52:46.027Z,0.00
2023-02-18T02:53:46.052Z,0.00
2023-02-18T02:54:46.148Z,0.00
2023-02-18T02:55:46.106Z,0.00
2023-02-18T02:56:46.136Z,0.00
2023-02-18T02:57:46.167Z,0.00
2023-02-18T02:58:46.210Z,0.00
2023-02-18T02:59:46.209Z,0.00
2023-02-18T03:00:46.271Z,0.00
2023-02-18T03:01:46.264Z,0.00
2023-02-18T03:02:46.341Z,0.00
2023-02-18T03:03:46.316Z,0.00
2023-02-18T03:04:46.345Z,0.00
2023-02-18T03:05:46.383Z,0.00
2023-02-18T03:06:46.398Z,0.00
2023-02-18T03:07:46.424Z,0.00
2023-02-18T03:08:46.454Z,0.00
2023-02-18T03:09:46.475Z,0.00
2023-02-18T03:10:46.653Z,0.00
2023-02-18T03:11:46.527Z,0.00
2023-02-18T03:12:46.558Z,0.00
2023-02-18T03:13:46.581Z,0.00
2023-02-18T03:14:46.630Z,0.00
2023-02-18T03:15:46.635Z,0.00
2023-02-18T03:16:46.693Z,0.00
2023-02-18T03:17:46.692Z,0.00
2023-02-18T03:18:46.716Z,0.00
2023-02-18T03:19:46.739Z,0.00
2023-02-18T03:20:46.785Z,0.00
2023-02-18T03:21:46.794Z,0.00
2023-02-18T03:22:46.824Z,0.00
2023-02-18T03:23:46.853Z,0.00
2023-02-18T03:24:46.979Z,0.00
2023-02-18T03:25:46.897Z,0.00
2023-02-18T03:26:46.929Z,0.00
2023-02-18T03:27:46.959Z,0.00
2023-02-18T03:28:46.986Z,0.00
2023-02-18T03:29:47.006Z,0.00
2023-02-18T03:30:47.053Z,0.00
2023-02-18T03:31:47.149Z,0.00
2023-02-18T03:32:47.084Z,0.00
2023-02-18T03:33:47.109Z,0.00
2023-02-18T03:34:47.136Z,0.00
2023-02-18T03:35:47.167Z,0.00
2023-02-18T03:36:47.193Z,0.00
2023-02-18T03:37:47.220Z,0.00
2023-02-18T03:38:47.242Z,0.00
2023-02-18T03:39:47.266Z,0.00
2023-02-18T03:40:47.295Z,0.00
2023-02-18T03:41:47.340Z,0.00
2023-02-18T03:42:47.355Z,0.00
2023-02-18T03:43:47.375Z,0.00
2023-02-18T03:44:47.401Z,0.00
2023-02-18T03:45:47.476Z,0.00
2023-02-18T03:46:47.475Z,0.00
2023-02-18T03:47:47.476Z,0.00
2023-02-18T03:48:47.509Z,0.00
2023-02-18T03:49:47.532Z,0.00
2023-02-18T03:50:47.557Z,0.00
2023-02-18T03:51:47.586Z,0.00
2023-02-18T03:52:47.612Z,0.00
2023-02-18T03:53:47.633Z,0.00
2023-02-18T03:54:47.666Z,0.00
2023-02-18T03:55:47.683Z,0.00
2023-02-18T03:56:47.717Z,0.00
2023-02-18T03:57:47.739Z,0.00
2023-02-18T03:58:47.763Z,0.00
2023-02-18T03:59:47.786Z,0.00
2023-02-18T04:00:47.814Z,0.00
2023-02-18T04:01:47.838Z,0.00
2023-02-18T04:02:47.884Z,0.00
2023-02-18T04:03:47.892Z,0.00
2023-02-18T04:04:47.918Z,0.00
2023-02-18T04:05:47.945Z,0.00
2023-02-18T04:06:47.972Z,0.00
2023-02-18T04:07:48.009Z,0.00
2023-02-18T04:08:48.022Z,0.00
2023-02-18T04:09:48.045Z,0.00
2023-02-18T04:10:48.226Z,0.00
2023-02-18T04:11:48.098Z,0.00
2023-02-18T04:12:48.125Z,0.00
2023-02-18T04:13:48.149Z,0.00
2023-02-18T04:14:48.178Z,0.00
2023-02-18T04:15:48.202Z,0.00
2023-02-18T04:16:48.260Z,0.00
2023-02-18T04:17:48.255Z,0.00
2023-02-18T04:18:48.302Z,0.00
2023-02-18T04:19:48.331Z,0.00
2023-02-18T04:20:48.334Z,0.00
2023-02-18T04:21:48.363Z,0.00
2023-02-18T04:22:48.388Z,0.00
2023-02-18T04:23:48.411Z,0.00
2023-02-18T04:24:48.448Z,0.00
2023-02-18T04:25:48.468Z,0.00
2023-02-18T04:26:48.495Z,0.00
2023-02-18T04:27:48.517Z,0.00
2023-02-18T04:28:48.561Z,0.00
2023-02-18T04:29:48.566Z,0.00
2023-02-18T04:30:48.761Z,0.00
2023-02-18T04:31:48.735Z,0.00
2023-02-18T04:32:48.649Z,0.00
2023-02-18T04:33:48.683Z,0.00
2023-02-18T04:34:48.720Z,0.00
2023-02-18T04:35:48.726Z,0.00
2023-02-18T04:36:48.752Z,0.00
2023-02-18T04:37:48.784Z,0.00
2023-02-18T04:38:48.807Z,0.00
2023-02-18T04:39:48.828Z,0.00
2023-02-18T04:40:48.857Z,0.00
2023-02-18T04:41:48.890Z,0.00
2023-02-18T04:42:48.910Z,0.00
2023-02-18T04:43:48.932Z,0.00
2023-02-18T04:44:48.963Z,0.00
2023-02-18T04:45:48.993Z,0.00
2023-02-18T04:46:49.015Z,0.00
2023-02-18T04:47:49.041Z,0.00
2023-02-18T04:48:49.076Z,0.00
2023-02-18T04:49:49.097Z,0.00
2023-02-18T04:50:49.135Z,0.00
2023-02-18T04:51:49.147Z,0.00
2023-02-18T04:52:49.169Z,0.00
2023-02-18T04:53:49.199Z,0.00
2023-02-18T04:54:49.227Z,0.00
2023-02-18T04:55:49.250Z,0.00
2023-02-18T04:56:49.275Z,0.00
2023-02-18T04:57:49.306Z,0.00
2023-02-18T04:58:49.330Z,0.00
2023-02-18T04:59:49.354Z,0.00
2023-02-18T05:00:49.381Z,0.00
2023-02-18T05:01:49.410Z,0.00
2023-02-18T05:02:49.434Z,0.00
2023-02-18T05:03:49.509Z,0.00
2023-02-18T05:04:49.488Z,0.00
2023-02-18T05:05:49.518Z,0.00
2023-02-18T05:06:49.560Z,0.00
2023-02-18T05:07:49.569Z,0.00
2023-02-18T05:08:49.594Z,0.00
2023-02-18T05:09:49.628Z,0.00
2023-02-18T05:10:49.647Z,0.00
2023-02-18T05:11:49.673Z,0.00
2023-02-18T05:12:49.698Z,0.00
2023-02-18T05:13:49.726Z,0.00
2023-02-18T05:14:49.753Z,0.00
2023-02-18T05:15:49.827Z,0.00
2023-02-18T05:16:49.809Z,0.00
2023-02-18T05:17:49.831Z,0.00
2023-02-18T05:18:49.856Z,0.00
2023-02-18T05:19:49.883Z,0.00
2023-02-18T05:20:49.907Z,0.00
2023-02-18T05:21:49.940Z,0.00
2023-02-18T05:22:49.984Z,0.00
2023-02-18T05:23:49.990Z,0.00
2023-02-18T05:24:50.027Z,0.00
2023-02-18T05:25:50.050Z,0.00
2023-02-18T05:26:50.064Z,0.00
2023-02-18T05:27:50.101Z,0.00
2023-02-18T05:28:50.116Z,0.00
2023-02-18T05:29:50.147Z,0.00
2023-02-18T05:30:50.230Z,0.00
2023-02-18T05:31:50.328Z,0.00
2023-02-18T05:32:50.219Z,0.00
2023-02-18T05:33:50.248Z,0.00
2023-02-18T05:34:50.272Z,0.00
2023-02-18T05:35:50.300Z,0.00
2023-02-18T05:36:50.327Z,0.00
2023-02-18T05:37:50.369Z,0.00
2023-02-18T05:38:50.394Z,0.00
2023-02-18T05:39:50.416Z,0.00
2023-02-18T05:40:50.428Z,0.00
2023-02-18T05:41:50.452Z,0.00
2023-02-18T05:42:50.478Z,0.00
2023-02-18T05:43:50.509Z,0.00
2023-02-18T05:44:50.529Z,0.00
2023-02-18T05:45:50.555Z,0.00
2023-02-18T05:46:50.580Z,0.00
2023-02-18T05:47:50.608Z,0.00
2023-02-18T05:48:50.635Z,0.00
2023-02-18T05:49:50.659Z,0.00
2023-02-18T05:50:50.682Z,0.00
2023-02-18T05:51:50.710Z,0.00
2023-02-18T05:52:50.736Z,0.00
2023-02-18T05:53:50.764Z,0.00
2023-02-18T05:54:50.803Z,0.00
2023-02-18T05:55:50.815Z,0.00
2023-02-18T05:56:50.841Z,0.00
2023-02-18T05:57:50.867Z,0.00
2023-02-18T05:58:50.896Z,0.00
2023-02-18T05:59:50.915Z,0.00
2023-02-18T06:00:50.941Z,0.00
2023-02-18T06:01:50.968Z,0.00
2023-02-18T06:02:51.021Z,0.00
2023-02-18T06:03:51.034Z,0.00
2023-02-18T06:04:51.048Z,0.00
2023-02-18T06:05:51.112Z,0.00
2023-02-18T06:06:51.102Z,0.00
2023-02-18T06:07:51.125Z,0.00
2023-02-18T06:08:51.148Z,0.00
2023-02-18T06:09:51.180Z,0.00
2023-02-18T06:10:51.218Z,0.00
2023-02-18T06:11:51.232Z,0.00
2023-02-18T06:12:51.261Z,0.00
2023-02-18T06:13:51.280Z,0.00
2023-02-18T06:14:51.303Z,0.00
2023-02-18T06:15:51.430Z,0.00
2023-02-18T06:16:51.353Z,4.00
2023-02-18T06:17:51.379Z,4.00
2023-02-18T06:18:51.404Z,4.00
2023-02-18T06:19:51.432Z,4.00
2023-02-18T06:20:51.467Z,4.00
2023-02-18T06:21:51.485Z,8.00
2023-02-18T06:22:51.508Z,8.00
2023-02-18T06:23:51.547Z,8.00
2023-02-18T06:24:51.560Z,12.00
2023-02-18T06:25:51.586Z,12.00
2023-02-18T06:26:51.639Z,12.00
2023-02-18T06:27:51.643Z,16.00
2023-02-18T06:28:51.664Z,16.00
2023-02-18T06:29:51.689Z,16.00
2023-02-18T06:30:51.710Z,24.00
2023-02-18T06:31:51.787Z,28.00
2023-02-18T06:32:51.767Z,28.00
2023-02-18T06:33:51.789Z,32.00
2023-02-18T06:34:51.814Z,36.00
2023-02-18T06:35:51.839Z,40.00
2023-02-18T06:36:51.863Z,44.00
2023-02-18T06:37:51.892Z,52.00
2023-02-18T06:38:51.922Z,52.00
2023-02-18T06:39:51.939Z,56.00
2023-02-18T06:40:51.965Z,64.00
2023-02-18T06:41:51.991Z,76.00
2023-02-18T06:42:52.051Z,80.00
2023-02-18T06:43:52.046Z,80.00
2023-02-18T06:44:52.089Z,104.00
2023-02-18T06:45:52.096Z,132.00
2023-02-18T06:46:52.184Z,136.00
2023-02-18T06:47:52.146Z,152.00
2023-02-18T06:48:52.168Z,172.00
2023-02-18T06:49:52.197Z,192.00
2023-02-18T06:50:52.221Z,200.00
2023-02-18T06:51:52.248Z,232.00
2023-02-18T06:52:52.271Z,260.00
2023-02-18T06:53:52.308Z,256.00
2023-02-18T06:54:52.323Z,268.00
2023-02-18T06:55:52.352Z,268.00
2023-02-18T06:56:52.378Z,324.00
2023-02-18T06:57:52.403Z,364.00
2023-02-18T06:58:52.445Z,356.00
2023-02-18T06:59:52.452Z,372.00
2023-02-18T07:00:52.556Z,440.00
2023-02-18T07:01:52.505Z,432.00
2023-02-18T07:02:52.534Z,408.00
2023-02-18T07:03:52.634Z,416.00
2023-02-18T07:04:52.580Z,436.00
2023-02-18T07:05:52.607Z,500.00
2023-02-18T07:06:52.633Z,600.00
2023-02-18T07:07:52.662Z,616.00
2023-02-18T07:08:52.696Z,604.00
2023-02-18T07:09:52.713Z,564.00
2023-02-18T07:10:52.736Z,480.00
2023-02-18T07:11:52.762Z,516.00
2023-02-18T07:12:53.039Z,576.00
2023-02-18T07:13:52.811Z,472.00
2023-02-18T07:14:53.007Z,416.00
2023-02-18T07:15:52.866Z,404.00
2023-02-18T07:16:52.889Z,416.00
2023-02-18T07:17:52.967Z,400.00
2023-02-18T07:18:52.942Z,420.00
2023-02-18T07:19:52.968Z,540.00
2023-02-18T07:20:52.992Z,532.00
2023-02-18T07:21:53.020Z,524.00
2023-02-18T07:22:53.044Z,576.00
2023-02-18T07:23:53.071Z,668.00
2023-02-18T07:24:53.101Z,848.00
2023-02-18T07:25:53.124Z,912.00
2023-02-18T07:26:53.146Z,964.00
2023-02-18T07:27:53.177Z,1192.00
2023-02-18T07:28:53.198Z,980.00
2023-02-18T07:29:53.230Z,932.00
2023-02-18T07:30:53.325Z,1140.00
2023-02-18T07:31:53.358Z,1220.00
2023-02-18T07:32:53.304Z,1188.00
2023-02-18T07:33:53.329Z,1092.00
2023-02-18T07:34:53.355Z,1220.00
2023-02-18T07:35:53.384Z,1544.00
2023-02-18T07:36:53.405Z,2124.00
2023-02-18T07:37:53.433Z,2552.00
2023-02-18T07:38:53.461Z,2932.00
2023-02-18T07:39:53.486Z,2980.00
2023-02-18T07:40:53.511Z,3064.00
2023-02-18T07:41:53.541Z,3192.00
2023-02-18T07:42:53.566Z,2684.00
2023-02-18T07:43:53.589Z,3132.00
2023-02-18T07:44:53.616Z,2824.00
2023-02-18T07:45:53.693Z,2664.00
2023-02-18T07:46:53.688Z,3060.00
2023-02-18T07:47:53.695Z,3596.00
2023-02-18T07:48:53.729Z,4192.00
2023-02-18T07:49:53.746Z,4672.00
2023-02-18T07:50:53.783Z,4376.00
2023-02-18T07:51:53.799Z,2708.00
2023-02-18T07:52:53.823Z,1776.00
2023-02-18T07:53:53.851Z,1652.00
2023-02-18T07:54:53.880Z,1272.00
2023-02-18T07:55:53.905Z,1304.00
2023-02-18T07:56:53.932Z,1752.00
2023-02-18T07:57:53.964Z,1752.00
2023-02-18T07:58:53.987Z,1608.00
2023-02-18T07:59:54.010Z,1344.00
2023-02-18T08:00:54.033Z,1304.00
2023-02-18T08:01:54.116Z,1212.00
2023-02-18T08:02:54.122Z,1280.00
2023-02-18T08:03:54.130Z,1280.00
2023-02-18T08:04:54.143Z,1180.00
2023-02-18T08:05:54.170Z,1080.00
2023-02-18T08:06:54.198Z,832.00
2023-02-18T08:07:54.235Z,724.00
2023-02-18T08:08:54.253Z,684.00
2023-02-18T08:09:54.276Z,732.00
2023-02-18T08:10:54.302Z,636.00
2023-02-18T08:11:54.332Z,620.00
2023-02-18T08:12:54.353Z,580.00
2023-02-18T08:13:54.383Z,688.00
2023-02-18T08:14:54.412Z,648.00
2023-02-18T08:15:54.434Z,624.00
2023-02-18T08:16:54.527Z,508.00
2023-02-18T08:17:54.490Z,488.00
2023-02-18T08:18:54.541Z,460.00
2023-02-18T08:19:54.545Z,524.00
2023-02-18T08:20:54.566Z,488.00
2023-02-18T08:21:54.595Z,444.00
2023-02-18T08:22:54.619Z,436.00
2023-02-18T08:23:54.646Z,748.00
2023-02-18T08:24:54.674Z,1036.00
2023-02-18T08:25:54.698Z,1160.00
2023-02-18T08:27:00.690Z,1324.00
2023-02-18T08:27:54.752Z,1344.00
2023-02-18T08:28:54.783Z,1204.00
2023-02-18T08:29:54.803Z,1060.00
2023-02-18T08:30:54.913Z,924.00
2023-02-18T08:31:55.129Z,804.00
2023-02-18T08:32:54.888Z,784.00
2023-02-18T08:33:54.915Z,644.00
2023-02-18T08:34:54.950Z,608.00
2023-02-18T08:35:54.962Z,604.00
2023-02-18T08:36:54.993Z,672.00
2023-02-18T08:37:55.775Z,772.00
2023-02-18T08:38:55.035Z,764.00
2023-02-18T08:39:55.061Z,836.00
2023-02-18T08:40:55.087Z,1036.00
2023-02-18T08:41:55.117Z,1312.00
2023-02-18T08:42:55.139Z,1560.00
2023-02-18T08:43:55.180Z,1480.00
2023-02-18T08:44:55.190Z,1704.00
2023-02-18T08:45:55.240Z,1888.00
2023-02-18T08:46:55.346Z,1888.00
2023-02-18T08:48:18.158Z,1816.00
2023-02-18T08:48:55.293Z,1888.00
2023-02-18T08:49:55.323Z,1752.00
2023-02-18T08:50:55.361Z,1732.00
2023-02-18T08:51:55.375Z,1784.00
2023-02-18T08:52:55.407Z,1844.00
2023-02-18T08:53:55.419Z,1804.00
2023-02-18T08:54:55.449Z,1816.00
2023-02-18T08:55:55.475Z,1716.00
2023-02-18T08:56:55.496Z,1796.00
2023-02-18T08:57:55.523Z,1740.00
2023-02-18T08:58:55.547Z,1788.00
2023-02-18T08:59:55.575Z,1928.00
2023-02-18T09:00:55.606Z,1808.00
2023-02-18T09:01:55.624Z,1772.00
2023-02-18T09:02:55.652Z,1756.00
2023-02-18T09:03:55.692Z,1688.00
2023-02-18T09:04:55.707Z,1688.00
2023-02-18T09:05:55.726Z,1632.00
2023-02-18T09:06:55.776Z,1500.00
2023-02-18T09:07:55.778Z,1348.00
2023-02-18T09:08:55.810Z,1364.00
2023-02-18T09:09:55.829Z,1276.00
2023-02-18T09:10:55.858Z,1328.00
2023-02-18T09:11:55.880Z,1288.00
2023-02-18T09:12:55.909Z,1516.00
2023-02-18T09:13:55.934Z,1464.00
2023-02-18T09:14:55.964Z,1468.00
2023-02-18T09:15:56.170Z,1484.00
2023-02-18T09:16:56.011Z,1680.00
2023-02-18T09:17:56.033Z,1932.00
2023-02-18T09:18:56.090Z,1632.00
2023-02-18T09:19:56.107Z,1696.00
2023-02-18T09:20:56.114Z,1832.00
2023-02-18T09:21:56.136Z,2004.00
2023-02-18T09:22:56.187Z,2352.00
2023-02-18T09:23:56.184Z,1924.00
2023-02-18T09:24:56.215Z,1776.00
2023-02-18T09:25:56.236Z,2192.00
2023-02-18T09:26:56.264Z,2348.00
2023-02-18T09:27:56.289Z,2436.00
2023-02-18T09:28:56.320Z,2464.00
2023-02-18T09:29:56.353Z,2304.00
2023-02-18T09:30:56.376Z,2324.00
2023-02-18T09:31:56.595Z,2488.00
2023-02-18T09:32:56.420Z,2700.00
2023-02-18T09:33:56.446Z,2836.00
2023-02-18T09:34:56.470Z,2792.00
2023-02-18T09:35:56.493Z,2616.00
2023-02-18T09:36:56.521Z,2596.00
2023-02-18T09:37:56.546Z,2916.00
2023-02-18T09:38:56.602Z,3148.00
2023-02-18T09:39:56.605Z,3592.00
2023-02-18T09:40:56.626Z,4288.00
2023-02-18T09:41:56.648Z,4776.00
2023-02-18T09:42:56.678Z,4416.00
2023-02-18T09:43:56.699Z,3764.00
2023-02-18T09:44:56.727Z,3056.00
2023-02-18T09:45:56.764Z,2692.00
2023-02-18T09:46:56.781Z,2976.00
2023-02-18T09:47:56.808Z,2796.00
2023-02-18T09:48:56.832Z,2648.00
2023-02-18T09:49:56.868Z,1836.00
2023-02-18T09:50:56.890Z,1892.00
2023-02-18T09:51:56.905Z,1772.00
2023-02-18T09:52:56.936Z,1852.00
2023-02-18T09:53:56.961Z,1788.00
2023-02-18T09:54:57.008Z,1376.00
2023-02-18T09:55:57.023Z,1332.00
2023-02-18T09:56:57.041Z,1428.00
2023-02-18T09:57:57.102Z,1324.00
2023-02-18T09:58:57.094Z,1564.00
2023-02-18T09:59:57.118Z,1620.00
2023-02-18T10:00:57.145Z,1576.00
2023-02-18T10:01:57.286Z,1368.00
2023-02-18T10:02:57.214Z,1352.00
2023-02-18T10:03:57.222Z,1312.00
2023-02-18T10:04:57.250Z,1448.00
2023-02-18T10:05:57.275Z,2352.00
2023-02-18T10:06:57.322Z,2532.00
2023-02-18T10:07:57.330Z,2196.00
2023-02-18T10:08:57.381Z,1920.00
2023-02-18T10:09:57.381Z,2016.00
2023-02-18T10:10:57.428Z,1832.00
2023-02-18T10:11:57.437Z,1732.00
2023-02-18T10:12:57.463Z,1720.00
2023-02-18T10:13:57.492Z,1824.00
2023-02-18T10:14:57.533Z,2000.00
2023-02-18T10:15:57.597Z,1864.00
2023-02-18T10:16:57.573Z,1728.00
2023-02-18T10:17:57.589Z,1824.00
2023-02-18T10:18:57.622Z,2204.00
2023-02-18T10:19:57.644Z,1980.00
2023-02-18T10:20:57.670Z,2120.00
2023-02-18T10:21:57.696Z,2312.00
2023-02-18T10:22:57.723Z,2132.00
2023-02-18T10:23:57.752Z,2024.00
2023-02-18T10:24:57.780Z,2152.00
2023-02-18T10:25:57.801Z,1960.00
2023-02-18T10:26:57.849Z,1960.00
2023-02-18T10:27:57.855Z,2084.00
2023-02-18T10:28:57.879Z,2208.00
2023-02-18T10:29:57.999Z,1916.00
2023-02-18T10:30:58.121Z,1836.00
2023-02-18T10:31:58.122Z,1920.00
2023-02-18T10:32:57.985Z,1716.00
2023-02-18T10:33:58.265Z,1652.00
2023-02-18T10:35:00.242Z,1712.00
2023-02-18T10:35:58.071Z,1724.00
2023-02-18T10:36:58.090Z,1636.00
2023-02-18T10:37:58.118Z,1720.00
2023-02-18T10:38:58.396Z,1776.00
2023-02-18T10:39:58.170Z,1780.00
2023-02-18T10:40:59.939Z,1704.00
2023-02-18T10:41:58.226Z,1712.00
2023-02-18T10:42:58.269Z,1528.00
2023-02-18T10:43:58.322Z,1368.00
2023-02-18T10:44:58.300Z,1264.00
2023-02-18T10:45:58.327Z,1360.00
2023-02-18T10:46:58.352Z,1384.00
2023-02-18T10:47:58.374Z,1432.00
2023-02-18T10:48:58.405Z,1500.00
2023-02-18T10:49:58.428Z,1528.00
2023-02-18T10:50:58.461Z,1556.00
2023-02-18T10:51:58.486Z,1468.00
2023-02-18T10:52:58.508Z,1500.00
2023-02-18T10:53:58.533Z,1796.00
2023-02-18T10:54:58.567Z,2116.00
2023-02-18T10:55:58.672Z,2132.00
2023-02-18T10:56:58.609Z,2064.00
2023-02-18T10:57:58.636Z,2216.00
2023-02-18T10:58:58.687Z,2116.00
2023-02-18T10:59:58.688Z,1972.00
2023-02-18T11:00:58.719Z,1668.00
2023-02-18T11:01:58.878Z,1748.00
2023-02-18T11:02:58.766Z,1772.00
2023-02-18T11:03:58.787Z,1996.00
2023-02-18T11:04:58.877Z,1880.00
2023-02-18T11:05:58.840Z,1700.00
2023-02-18T11:06:58.868Z,2304.00
2023-02-18T11:07:58.893Z,1928.00
2023-02-18T11:08:58.923Z,1804.00
2023-02-18T11:09:58.944Z,1912.00
2023-02-18T11:10:58.974Z,1428.00
2023-02-18T11:12:07.760Z,1336.00
2023-02-18T11:12:59.041Z,1236.00
2023-02-18T11:13:59.053Z,1024.00
2023-02-18T11:14:59.093Z,1196.00
2023-02-18T11:15:59.160Z,1224.00
2023-02-18T11:16:59.124Z,1076.00
2023-02-18T11:17:59.154Z,1308.00
2023-02-18T11:18:59.174Z,1320.00
2023-02-18T11:19:59.202Z,1380.00
2023-02-18T11:20:59.226Z,1532.00
2023-02-18T11:21:59.254Z,1488.00
2023-02-18T11:22:59.278Z,1684.00
2023-02-18T11:23:59.300Z,2076.00
2023-02-18T11:24:59.336Z,1972.00
2023-02-18T11:25:59.355Z,2504.00
2023-02-18T11:26:59.389Z,2964.00
2023-02-18T11:27:59.405Z,3416.00
2023-02-18T11:28:59.430Z,3312.00
2023-02-18T11:29:59.501Z,2636.00
2023-02-18T11:30:59.548Z,2920.00
2023-02-18T11:31:59.637Z,3060.00
2023-02-18T11:32:59.536Z,3288.00
2023-02-18T11:33:59.557Z,2808.00
2023-02-18T11:34:59.587Z,2624.00
2023-02-18T11:35:59.609Z,3100.00
2023-02-18T11:36:59.636Z,2816.00
2023-02-18T11:37:59.664Z,2616.00
2023-02-18T11:38:59.689Z,2948.00
2023-02-18T11:39:59.712Z,3428.00
2023-02-18T11:40:59.738Z,2648.00
2023-02-18T11:41:59.763Z,2452.00
2023-02-18T11:42:59.790Z,2956.00
2023-02-18T11:43:59.814Z,2776.00
2023-02-18T11:44:59.844Z,2852.00
2023-02-18T11:45:59.866Z,2876.00
2023-02-18T11:46:59.972Z,2836.00
2023-02-18T11:47:59.915Z,3200.00
2023-02-18T11:48:59.942Z,3296.00
2023-02-18T11:49:59.969Z,2416.00
2023-02-18T11:50:59.995Z,2088.00
2023-02-18T11:52:00.018Z,2124.00
2023-02-18T11:53:00.046Z,2352.00
2023-02-18T11:54:00.105Z,2792.00
2023-02-18T11:55:00.164Z,2716.00
2023-02-18T11:56:00.121Z,2236.00
2023-02-18T11:57:00.149Z,2064.00
2023-02-18T11:58:00.173Z,2372.00
2023-02-18T11:59:00.202Z,1820.00
2023-02-18T12:00:00.228Z,2636.00
2023-02-18T12:01:00.253Z,2488.00
2023-02-18T12:02:00.357Z,2068.00
2023-02-18T12:03:00.324Z,2104.00
2023-02-18T12:04:00.331Z,2376.00
2023-02-18T12:05:00.433Z,1996.00
2023-02-18T12:06:00.384Z,2108.00
2023-02-18T12:07:00.409Z,1828.00
2023-02-18T12:08:00.430Z,2132.00
2023-02-18T12:09:00.458Z,2036.00
2023-02-18T12:10:00.484Z,2136.00
2023-02-18T12:11:00.515Z,2216.00
2023-02-18T12:12:00.533Z,1728.00
2023-02-18T12:13:00.563Z,2016.00
2023-02-18T12:14:00.591Z,1824.00
2023-02-18T12:15:00.616Z,2068.00
2023-02-18T12:16:00.657Z,2284.00
2023-02-18T12:17:00.666Z,2112.00
2023-02-18T12:18:00.691Z,2276.00
2023-02-18T12:19:00.753Z,2352.00
2023-02-18T12:20:00.752Z,2328.00
2023-02-18T12:21:00.767Z,2452.00
2023-02-18T12:22:00.791Z,2268.00
2023-02-18T12:23:00.819Z,2844.00
2023-02-18T12:24:00.842Z,2536.00
2023-02-18T12:25:00.872Z,2348.00
2023-02-18T12:26:00.894Z,2512.00
2023-02-18T12:27:00.922Z,1668.00
2023-02-18T12:28:00.945Z,1876.00
2023-02-18T12:29:00.971Z,1868.00
2023-02-18T12:30:01.047Z,1832.00
2023-02-18T12:31:01.059Z,2236.00
2023-02-18T12:32:01.059Z,2008.00
2023-02-18T12:33:01.075Z,1808.00
2023-02-18T12:34:01.100Z,2460.00
2023-02-18T12:35:01.145Z,2136.00
2023-02-18T12:36:01.157Z,1888.00
2023-02-18T12:37:01.177Z,2404.00
2023-02-18T12:38:01.206Z,2460.00
2023-02-18T12:39:01.228Z,2856.00
2023-02-18T12:40:01.251Z,2556.00
2023-02-18T12:41:01.290Z,2656.00
2023-02-18T12:42:01.306Z,2872.00
2023-02-18T12:43:01.330Z,2992.00
2023-02-18T12:44:01.364Z,3056.00
2023-02-18T12:45:01.387Z,3120.00